createdAt,value
2023-03-11T00:01:34.414Z,96636.95
2023-03-11T00:04:05.215Z,96640.98
2023-03-11T00:06:37.411Z,96638.25
2023-03-11T00:09:08.729Z,96642.30
2023-03-11T00:11:39.457Z,96645.80
2023-03-11T00:14:10.352Z,96653.11
2023-03-11T00:16:41.120Z,96660.84
2023-03-11T00:19:12.405Z,96659.33
2023-03-11T00:21:43.239Z,96662.14
2023-03-11T00:24:14.187Z,96642.01
2023-03-11T00:26:45.125Z,96667.75
2023-03-11T00:29:15.854Z,96643.23
2023-03-11T00:31:46.593Z,96651.14
2023-03-11T00:34:17.556Z,96674.34
2023-03-11T00:36:48.247Z,96676.17
2023-03-11T00:39:18.934Z,96676.92
2023-03-11T00:41:50.907Z,96684.13
2023-03-11T00:44:21.725Z,96685.61
2023-03-11T00:46:52.829Z,96687.16
2023-03-11T00:49:23.727Z,96691.41
2023-03-11T00:51:54.408Z,96690.53
2023-03-11T00:54:25.219Z,96686.91
2023-03-11T00:56:56.016Z,96692.42
2023-03-11T00:59:26.857Z,96688.05
2023-03-11T01:01:57.538Z,96655.19
2023-03-11T01:04:28.501Z,96688.42
2023-03-11T01:06:59.495Z,96678.89
2023-03-11T01:09:30.227Z,96678.95
2023-03-11T01:12:00.972Z,96669.46
2023-03-11T01:14:31.704Z,96669.01
2023-03-11T01:17:02.440Z,96674.59
2023-03-11T01:19:33.046Z,96667.03
2023-03-11T01:22:03.754Z,96665.08
2023-03-11T01:24:37.105Z,96660.39
2023-03-11T01:27:08.230Z,96638.92
2023-03-11T01:29:39.133Z,96662.45
2023-03-11T01:32:11.948Z,96682.58
2023-03-11T01:34:42.722Z,96699.38
2023-03-11T01:37:13.870Z,96705.17
2023-03-11T01:39:44.914Z,96722.91
2023-03-11T01:42:16.265Z,96730.86
2023-03-11T01:44:47.296Z,96735.45
2023-03-11T01:47:41.266Z,96756.91
2023-03-11T01:50:14.399Z,96756.73
2023-03-11T01:52:46.678Z,96757.52
2023-03-11T01:55:20.049Z,96774.81
2023-03-11T01:57:52.327Z,96780.61
2023-03-11T02:00:25.493Z,96794.52
2023-03-11T02:02:59.383Z,96770.08
2023-03-11T02:05:30.528Z,96810.18
2023-03-11T02:08:02.032Z,96812.02
2023-03-11T02:10:33.376Z,96815.79
2023-03-11T02:13:05.689Z,96810.27
2023-03-11T02:15:38.371Z,96822.78
2023-03-11T02:18:14.693Z,96822.33
2023-03-11T02:20:53.713Z,96819.71
2023-03-11T02:23:45.195Z,96831.33
2023-03-11T02:26:22.181Z,96827.77
2023-03-11T02:28:54.343Z,96833.46
2023-03-11T02:31:26.264Z,96837.41
2023-03-11T02:33:59.038Z,96827.61
2023-03-11T02:36:39.744Z,96842.48
2023-03-11T02:39:11.331Z,96839.66
2023-03-11T02:41:45.605Z,96842.23
2023-03-11T02:44:18.539Z,96835.84
2023-03-11T02:46:49.496Z,96839.26
2023-03-11T02:49:21.666Z,96844.95
2023-03-11T02:51:52.522Z,96834.93
2023-03-11T02:54:23.237Z,96846.08
2023-03-11T02:56:53.988Z,96850.67
2023-03-11T02:59:24.752Z,96872.22
2023-03-11T03:01:55.423Z,96881.86
2023-03-11T03:04:26.112Z,96883.69
2023-03-11T03:06:57.093Z,96900.98
2023-03-11T03:09:27.867Z,96903.92
2023-03-11T03:11:58.781Z,96915.48
2023-03-11T03:14:29.627Z,96915.48
2023-03-11T03:17:00.533Z,96920.78
2023-03-11T03:19:31.300Z,96918.61
2023-03-11T03:22:01.981Z,96921.90
2023-03-11T03:24:32.659Z,96926.14
2023-03-11T03:27:03.321Z,96928.42
2023-03-11T03:29:34.080Z,96929.55
2023-03-11T03:32:04.863Z,96928.42
2023-03-11T03:34:36.236Z,96933.33
2023-03-11T03:37:06.996Z,96934.39
2023-03-11T03:39:37.621Z,96930.48
2023-03-11T03:42:09.028Z,96938.05
2023-03-11T03:44:39.702Z,96940.35
2023-03-11T03:47:10.368Z,96942.41
2023-03-11T03:49:41.317Z,96956.25
2023-03-11T03:52:12.356Z,96953.52
2023-03-11T03:54:43.110Z,96959.63
2023-03-11T03:57:14.162Z,96967.16
2023-03-11T03:59:44.782Z,96965.58
2023-03-11T04:02:15.725Z,96966.23
2023-03-11T04:04:46.675Z,96968.67
2023-03-11T04:07:17.618Z,96946.27
2023-03-11T04:09:48.266Z,96970.60
2023-03-11T04:12:19.234Z,96966.63
2023-03-11T04:14:49.884Z,96974.35
2023-03-11T04:17:22.535Z,96971.52
2023-03-11T04:19:53.561Z,96970.23
2023-03-11T04:22:24.281Z,96970.63
2023-03-11T04:24:55.356Z,96970.73
2023-03-11T04:27:27.700Z,96972.83
2023-03-11T04:29:58.559Z,96976.41
2023-03-11T04:32:29.459Z,96976.36
2023-03-11T04:35:00.141Z,96978.23
2023-03-11T04:37:32.529Z,96984.30
2023-03-11T04:40:04.255Z,96984.84
2023-03-11T04:42:35.033Z,96972.56
2023-03-11T04:45:06.889Z,96992.77
2023-03-11T04:47:37.751Z,96997.20
2023-03-11T04:50:09.132Z,96994.46
2023-03-11T04:52:39.871Z,97000.02
2023-03-11T04:55:13.873Z,97004.45
2023-03-11T04:57:45.373Z,97008.10
2023-03-11T05:00:20.160Z,97009.77
2023-03-11T05:02:50.928Z,97016.16
2023-03-11T05:05:22.339Z,97020.98
2023-03-11T05:07:53.130Z,97023.88
2023-03-11T05:10:24.152Z,97020.50
2023-03-11T05:12:57.571Z,97031.15
2023-03-11T05:15:28.893Z,97027.05
2023-03-11T05:17:59.741Z,97032.79
2023-03-11T05:20:32.361Z,97032.86
2023-03-11T05:23:03.297Z,97038.58
2023-03-11T05:25:35.554Z,97040.34
2023-03-11T05:28:06.655Z,97038.81
2023-03-11T05:30:37.719Z,97038.70
2023-03-11T05:33:09.241Z,97041.01
2023-03-11T05:35:40.167Z,97036.84
2023-03-11T05:38:11.143Z,97042.63
2023-03-11T05:40:42.296Z,97039.23
2023-03-11T05:43:13.245Z,97045.20
2023-03-11T05:45:44.232Z,97050.09
2023-03-11T05:48:15.035Z,97042.70
2023-03-11T05:50:46.023Z,97057.41
2023-03-11T05:53:17.226Z,97063.95
2023-03-11T05:55:56.505Z,97064.77
2023-03-11T05:58:27.683Z,97069.95
2023-03-11T06:01:00.235Z,97067.61
2023-03-11T06:03:33.921Z,97078.02
2023-03-11T06:06:05.777Z,97078.39
2023-03-11T06:08:36.512Z,97079.24
2023-03-11T06:11:09.907Z,97100.02
2023-03-11T06:13:41.097Z,97107.29
2023-03-11T06:16:12.938Z,97107.69
2023-03-11T06:18:43.782Z,97115.39
2023-03-11T06:21:19.833Z,97123.72
2023-03-11T06:23:50.800Z,97122.39
2023-03-11T06:26:23.963Z,97126.17
2023-03-11T06:28:55.467Z,97138.22
2023-03-11T06:31:28.161Z,97138.27
2023-03-11T06:33:59.955Z,97150.43
2023-03-11T06:36:30.827Z,97154.95
2023-03-11T06:39:02.081Z,97159.36
2023-03-11T06:41:36.253Z,97164.28
2023-03-11T06:44:07.386Z,97173.52
2023-03-11T06:46:38.112Z,97183.87
2023-03-11T06:49:08.900Z,97184.73
2023-03-11T06:51:40.042Z,97199.46
2023-03-11T06:54:11.936Z,97204.83
2023-03-11T06:56:42.705Z,97210.27
2023-03-11T06:59:15.307Z,97214.64
2023-03-11T07:01:45.952Z,97222.57
2023-03-11T07:04:16.752Z,97212.05
2023-03-11T07:06:47.531Z,97235.66
2023-03-11T07:09:18.585Z,97244.33
2023-03-11T07:11:49.645Z,97216.68
2023-03-11T07:14:21.966Z,97258.90
2023-03-11T07:16:52.971Z,97258.71
2023-03-11T07:19:24.066Z,97268.31
2023-03-11T07:21:54.875Z,97252.33
2023-03-11T07:24:25.635Z,97284.13
2023-03-11T07:26:56.437Z,97294.95
2023-03-11T07:29:27.267Z,97298.12
2023-03-11T07:31:58.257Z,97302.38
2023-03-11T07:34:29.131Z,97309.02
2023-03-11T07:36:59.912Z,97316.70
2023-03-11T07:39:31.000Z,97324.69
2023-03-11T07:42:01.982Z,97324.75
2023-03-11T07:44:32.912Z,97337.20
2023-03-11T07:47:06.598Z,97339.48
2023-03-11T07:49:37.656Z,97350.56
2023-03-11T07:52:09.663Z,97347.95
2023-03-11T07:54:40.578Z,97367.94
2023-03-11T07:57:17.144Z,97376.21
2023-03-11T07:59:48.795Z,97384.58
2023-03-11T08:02:19.961Z,97386.11
2023-03-11T08:04:50.908Z,97396.84
2023-03-11T08:07:22.043Z,97403.61
2023-03-11T08:09:52.768Z,97408.45
2023-03-11T08:12:23.613Z,97410.96
2023-03-11T08:14:54.456Z,97420.84
2023-03-11T08:17:25.208Z,97430.52
2023-03-11T08:19:56.441Z,97441.75
2023-03-11T08:22:27.370Z,97446.19
2023-03-11T08:24:58.461Z,97428.24
2023-03-11T08:27:31.089Z,97462.08
2023-03-11T08:30:02.471Z,97459.94
2023-03-11T08:32:33.327Z,97475.27
2023-03-11T08:35:04.448Z,97478.35
2023-03-11T08:37:35.613Z,97484.47
2023-03-11T08:40:09.974Z,97489.67
2023-03-11T08:42:40.759Z,97502.27
2023-03-11T08:45:13.323Z,97503.86
2023-03-11T08:47:44.238Z,97501.92
2023-03-11T08:50:18.553Z,97517.80
2023-03-11T08:52:49.578Z,97524.48
2023-03-11T08:55:25.259Z,97526.92
2023-03-11T08:57:56.583Z,97532.40
2023-03-11T09:00:27.911Z,97546.19
2023-03-11T09:02:58.979Z,97553.25
2023-03-11T09:05:30.422Z,97552.89
2023-03-11T09:08:04.969Z,97557.49
2023-03-11T09:10:36.998Z,97571.21
2023-03-11T09:13:08.094Z,97566.16
2023-03-11T09:15:40.213Z,97579.26
2023-03-11T09:18:15.361Z,97586.95
2023-03-11T09:20:47.061Z,97599.04
2023-03-11T09:23:19.465Z,97597.30
2023-03-11T09:25:50.520Z,97604.23
2023-03-11T09:28:21.572Z,97611.77
2023-03-11T09:30:52.609Z,97619.69
2023-03-11T09:33:23.845Z,97622.19
2023-03-11T09:35:55.247Z,97628.89
2023-03-11T09:38:26.370Z,97638.94
2023-03-11T09:41:02.787Z,97640.83
2023-03-11T09:43:52.712Z,97639.11
2023-03-11T09:46:47.517Z,97650.30
2023-03-11T09:49:27.554Z,97654.95
2023-03-11T09:51:59.430Z,97655.73
2023-03-11T09:54:37.579Z,97662.89
2023-03-11T09:57:11.162Z,97671.57
2023-03-11T09:59:44.998Z,97677.09
2023-03-11T10:02:20.120Z,97684.02
2023-03-11T10:04:57.859Z,97692.71
2023-03-11T10:07:35.127Z,97694.46
2023-03-11T10:10:07.006Z,97699.80
2023-03-11T10:12:52.279Z,97700.39
2023-03-11T10:15:33.259Z,97713.01
2023-03-11T10:18:21.901Z,97716.20
2023-03-11T10:20:59.857Z,97721.09
2023-03-11T10:23:45.545Z,97730.39
2023-03-11T10:26:21.610Z,97735.74
2023-03-11T10:28:58.340Z,97747.38
2023-03-11T10:31:32.841Z,97757.86
2023-03-11T10:34:10.754Z,97764.63
2023-03-11T10:36:54.177Z,97770.88
2023-03-11T10:39:26.802Z,97774.59
2023-03-11T10:42:00.757Z,97781.68
2023-03-11T10:44:36.366Z,97787.45
2023-03-11T10:47:08.715Z,97788.81
2023-03-11T10:49:39.882Z,97799.11
2023-03-11T10:52:11.079Z,97803.23
2023-03-11T10:54:46.387Z,97808.54
2023-03-11T10:57:29.378Z,97809.69
2023-03-11T11:00:01.523Z,97816.58
2023-03-11T11:02:34.604Z,97819.21
2023-03-11T11:05:28.472Z,97822.48
2023-03-11T11:08:12.567Z,97821.41
2023-03-11T11:10:53.147Z,97824.79
2023-03-11T11:13:26.289Z,97830.58
2023-03-11T11:16:00.299Z,97844.11
2023-03-11T11:18:35.142Z,97841.02
2023-03-11T11:21:09.413Z,97848.88
2023-03-11T11:23:48.008Z,97833.12
2023-03-11T11:26:22.052Z,97854.88
2023-03-11T11:29:09.456Z,97858.93
2023-03-11T11:31:41.908Z,97859.28
2023-03-11T11:34:31.398Z,97864.73
2023-03-11T11:37:05.330Z,97845.12
2023-03-11T11:39:52.119Z,97868.42
2023-03-11T11:42:24.648Z,97879.64
2023-03-11T11:44:58.724Z,97877.68
2023-03-11T11:47:35.243Z,97869.27
2023-03-11T15:03:31.220Z,98104.44
2023-03-11T15:06:03.487Z,98107.70
2023-03-11T15:09:57.089Z,98108.96
2023-03-11T15:12:36.113Z,98112.46
2023-03-11T15:15:26.501Z,98118.15
2023-03-11T15:17:58.525Z,98122.76
2023-03-11T15:20:32.520Z,98129.77
2023-03-11T15:23:06.137Z,98137.67
2023-03-11T15:25:39.150Z,98141.00
2023-03-11T15:28:26.300Z,98144.63
2023-03-11T15:31:31.493Z,98146.17
2023-03-11T15:34:26.125Z,98150.93
2023-03-11T15:37:19.873Z,98155.44
2023-03-11T15:39:53.320Z,98163.20
2023-03-11T15:42:30.574Z,98170.61
2023-03-11T15:45:16.656Z,98174.20
2023-03-11T15:47:49.574Z,98182.52
2023-03-11T15:50:28.582Z,98186.23
2023-03-11T15:53:03.533Z,98196.90
2023-03-11T15:55:34.534Z,98207.02
2023-03-11T15:58:09.464Z,98205.80
2023-03-11T16:00:41.798Z,98209.08
2023-03-11T16:03:12.692Z,98214.51
2023-03-11T16:05:44.471Z,98222.58
2023-03-11T16:08:16.806Z,98225.16
2023-03-11T16:10:47.906Z,98227.20
2023-03-11T16:13:19.355Z,98236.17
2023-03-11T16:15:50.526Z,98236.52
2023-03-11T16:18:21.468Z,98242.96
2023-03-11T16:20:54.497Z,98243.73
2023-03-11T16:23:29.562Z,98251.95
2023-03-11T16:26:04.278Z,98255.09
2023-03-11T16:28:35.286Z,98254.45
2023-03-11T16:31:08.751Z,98257.27
2023-03-11T16:33:40.274Z,98261.42
2023-03-11T16:36:12.737Z,98263.82
2023-03-11T16:38:48.323Z,98268.17
2023-03-11T16:41:20.755Z,98274.09
2023-03-11T16:43:51.642Z,98274.04
2023-03-11T16:46:22.809Z,98279.66
2023-03-11T16:48:55.925Z,98285.18
2023-03-11T16:51:29.210Z,98286.46
2023-03-11T16:54:00.289Z,98289.64
2023-03-11T16:56:31.333Z,98291.83
2023-03-11T16:59:02.656Z,98294.73
2023-03-11T17:01:33.565Z,98306.52
2023-03-11T17:04:04.591Z,98311.55
2023-03-11T17:06:35.887Z,98315.67
2023-03-11T17:09:07.151Z,98319.11
2023-03-11T17:11:38.128Z,98323.18
2023-03-11T17:14:16.255Z,98329.07
2023-03-11T17:16:48.577Z,98333.39
2023-03-11T17:19:19.998Z,98339.81
2023-03-11T17:21:50.771Z,98343.21
2023-03-11T17:24:21.952Z,98344.50
2023-03-11T17:26:53.112Z,98351.63
2023-03-11T17:29:24.187Z,98356.09
2023-03-11T17:31:55.303Z,98359.27
2023-03-11T17:34:26.837Z,98363.65
2023-03-11T17:36:57.929Z,98360.81
2023-03-11T17:39:28.950Z,98363.59
2023-03-11T17:41:59.970Z,98369.00
2023-03-11T17:44:44.631Z,98371.64
2023-03-11T17:47:22.129Z,98376.21
2023-03-11T17:49:54.012Z,98376.98
2023-03-11T17:52:24.936Z,98381.34
2023-03-11T17:54:56.767Z,98383.43
2023-03-11T17:57:28.537Z,98390.17
2023-03-11T18:00:04.318Z,98396.64
2023-03-11T18:02:37.060Z,98399.27
2023-03-11T18:05:10.449Z,98400.21
2023-03-11T18:07:42.081Z,98404.21
2023-03-11T18:10:15.689Z,98410.46
2023-03-11T18:12:50.037Z,98415.61
2023-03-11T18:15:22.947Z,98420.16
2023-03-11T18:17:57.287Z,98423.80
2023-03-11T18:20:28.217Z,98425.92
2023-03-11T18:23:01.085Z,98422.23
2023-03-11T18:25:33.009Z,98425.90
2023-03-11T18:28:05.530Z,98426.31
2023-03-11T18:30:39.698Z,98423.88
2023-03-11T18:33:11.218Z,98430.80
2023-03-11T18:35:42.909Z,98431.52
2023-03-11T18:38:14.035Z,98432.84
2023-03-11T18:40:45.217Z,98439.52
2023-03-11T18:43:17.478Z,98445.08
2023-03-11T18:45:49.817Z,98448.87
2023-03-11T18:48:20.961Z,98453.33
2023-03-11T18:50:57.261Z,98457.16
2023-03-11T18:53:28.663Z,98460.91
2023-03-11T18:56:03.807Z,98465.73
2023-03-11T18:58:34.942Z,98466.64
2023-03-11T19:01:12.473Z,98473.67
2023-03-11T19:03:44.594Z,98474.61
2023-03-11T19:06:16.821Z,98479.25
2023-03-11T19:08:48.230Z,98486.85
2023-03-11T19:11:21.198Z,98489.35
2023-03-11T19:13:52.458Z,98493.95
2023-03-11T19:16:26.135Z,98496.02
2023-03-11T19:18:58.501Z,98497.32
2023-03-11T19:21:29.675Z,98501.84
2023-03-11T19:24:01.515Z,98500.10
2023-03-11T19:26:45.747Z,98498.00
2023-03-11T19:29:18.120Z,98497.96
2023-03-11T19:31:49.099Z,98501.80
2023-03-11T19:34:21.650Z,98503.95
2023-03-11T19:36:52.988Z,98505.33
2023-03-11T19:39:24.163Z,98512.69
2023-03-11T19:41:55.619Z,98514.52
2023-03-11T19:44:26.642Z,98516.61
2023-03-11T19:46:58.233Z,98519.98
2023-03-11T19:49:29.507Z,98524.59
2023-03-11T19:52:00.736Z,98526.09
2023-03-11T19:54:31.796Z,98525.04
2023-03-11T19:57:02.699Z,98530.40
2023-03-11T19:59:34.732Z,98530.35
2023-03-11T20:02:06.635Z,98532.64
2023-03-11T20:04:37.914Z,98535.17
2023-03-11T20:07:09.401Z,98536.17
2023-03-11T20:09:40.629Z,98542.89
2023-03-11T20:12:12.396Z,98542.88
2023-03-11T20:14:46.487Z,98547.84
2023-03-11T20:17:17.903Z,98548.65
2023-03-11T20:19:49.529Z,98554.36
2023-03-11T20:22:20.667Z,98554.78
2023-03-11T20:24:52.767Z,98555.27
2023-03-11T20:27:24.326Z,98555.36
2023-03-11T20:29:55.905Z,98558.01
2023-03-11T20:32:27.015Z,98555.84
2023-03-11T20:34:58.105Z,98558.88
2023-03-11T20:37:30.246Z,98559.10
2023-03-11T20:40:01.658Z,98559.14
2023-03-11T20:42:32.714Z,98560.02
2023-03-11T20:45:07.131Z,98560.30
2023-03-11T20:47:38.394Z,98563.36
2023-03-11T20:50:11.239Z,98563.44
2023-03-11T20:52:42.558Z,98563.30
2023-03-11T20:55:14.087Z,98563.70
2023-03-11T20:57:45.278Z,98564.04
2023-03-11T21:00:18.421Z,98560.73
2023-03-11T21:02:52.284Z,98560.88
2023-03-11T21:05:23.889Z,98561.44
2023-03-11T21:07:55.187Z,98569.27
2023-03-11T21:10:27.037Z,98569.63
2023-03-11T21:12:58.310Z,98572.95
2023-03-11T21:15:29.615Z,98579.09
2023-03-11T21:18:01.127Z,98579.23
2023-03-11T21:20:32.181Z,98577.19
2023-03-11T21:23:03.310Z,98577.57
2023-03-11T21:25:35.336Z,98578.04
2023-03-11T21:28:06.593Z,98578.79
2023-03-11T21:30:38.046Z,98579.02
2023-03-11T21:33:09.381Z,98580.13
2023-03-11T21:35:40.554Z,98577.06
2023-03-11T21:38:11.714Z,98580.36
2023-03-11T21:40:42.723Z,98577.38
2023-03-11T21:43:14.724Z,98579.00
2023-03-11T21:45:46.934Z,98575.36
2023-03-11T21:48:18.160Z,98575.48
2023-03-11T21:50:49.728Z,98578.50
2023-03-11T21:53:21.049Z,98577.33
2023-03-11T21:55:53.666Z,98572.13
2023-03-11T21:58:25.093Z,98569.49
2023-03-11T22:00:56.701Z,98573.00
2023-03-11T22:03:28.354Z,98571.73
2023-03-11T22:06:00.852Z,98567.77
2023-03-11T22:08:32.146Z,98565.30
2023-03-11T22:11:03.571Z,98567.10
2023-03-11T22:13:34.595Z,98564.77
2023-03-11T22:16:07.978Z,98568.46
2023-03-11T22:18:39.165Z,98571.11
2023-03-11T22:21:10.885Z,98578.00
2023-03-11T22:23:42.088Z,98577.23
2023-03-11T22:26:15.482Z,98581.04
2023-03-11T22:28:47.130Z,98580.33
2023-03-11T22:31:19.295Z,98580.67
2023-03-11T22:33:50.798Z,98579.40
2023-03-11T22:36:22.121Z,98583.75
2023-03-11T22:38:53.269Z,98588.46
2023-03-11T22:41:26.331Z,98587.10
2023-03-11T22:43:57.235Z,98590.88
2023-03-11T22:46:29.076Z,98589.53
2023-03-11T22:49:00.445Z,98589.45
2023-03-11T22:51:31.407Z,98591.86
2023-03-11T22:54:02.598Z,98588.40
2023-03-11T22:56:33.685Z,98591.49
2023-03-11T22:59:04.650Z,98595.23
2023-03-11T23:01:36.364Z,98593.48
2023-03-11T23:04:07.406Z,98595.82
2023-03-11T23:06:38.335Z,98598.99
2023-03-11T23:09:09.274Z,98598.92
2023-03-11T23:11:40.374Z,98599.21
2023-03-11T23:14:11.245Z,98600.59
2023-03-11T23:16:42.646Z,98602.45
2023-03-11T23:19:14.923Z,98606.95
2023-03-11T23:21:45.744Z,98610.44
2023-03-11T23:24:16.567Z,98607.29
2023-03-11T23:26:47.415Z,98604.01
2023-03-11T23:29:18.252Z,98608.83
2023-03-11T23:31:49.217Z,98609.08
2023-03-11T23:34:20.025Z,98614.17
2023-03-11T23:36:50.874Z,98614.72
2023-03-11T23:39:21.610Z,98613.08
2023-03-11T23:41:52.449Z,98616.97
2023-03-11T23:44:23.187Z,98616.52
2023-03-11T23:46:53.898Z,98620.06
2023-03-11T23:49:27.156Z,98622.69
2023-03-11T23:51:57.917Z,98628.31
2023-03-11T23:54:28.908Z,98631.91
2023-03-11T23:56:59.726Z,98629.56
2023-03-11T23:59:30.584Z,98625.97
